createdAt,value
2022-09-23T00:02:08.215Z,4.86
2022-09-23T00:04:35.992Z,4.86
2022-09-23T00:07:05.272Z,4.94
2022-09-23T00:09:33.234Z,5.09
2022-09-23T00:12:03.721Z,5.06
2022-09-23T00:14:33.677Z,5.07
2022-09-23T00:17:01.495Z,4.93
2022-09-23T00:19:29.447Z,4.82
2022-09-23T00:21:59.403Z,4.69
2022-09-23T00:24:32.268Z,4.61
2022-09-23T00:27:00.310Z,4.50
2022-09-23T00:29:28.084Z,4.42
2022-09-23T00:31:55.864Z,4.32
2022-09-23T00:34:23.642Z,4.29
2022-09-23T00:36:51.443Z,4.27
2022-09-23T00:39:19.160Z,4.21
2022-09-23T00:41:48.301Z,4.20
2022-09-23T00:44:49.093Z,4.16
2022-09-23T00:47:22.207Z,4.07
2022-09-23T00:50:01.725Z,4.13
2022-09-23T00:52:31.611Z,4.11
2022-09-23T00:55:00.989Z,3.99
2022-09-23T00:57:31.217Z,3.94
2022-09-23T00:59:59.111Z,3.84
2022-09-23T01:02:28.281Z,3.76
2022-09-23T01:04:56.413Z,3.66
2022-09-23T01:07:24.230Z,3.70
2022-09-23T01:09:52.108Z,3.64
2022-09-23T01:12:31.365Z,3.63
2022-09-23T01:15:10.216Z,3.57
2022-09-23T01:17:47.468Z,3.54
2022-09-23T01:20:41.869Z,3.42
2022-09-23T01:23:28.458Z,3.29
2022-09-23T01:26:20.270Z,3.29
2022-09-23T01:29:05.032Z,3.27
2022-09-23T01:31:43.921Z,3.23
2022-09-23T01:34:16.603Z,3.25
2022-09-23T01:36:49.281Z,3.21
2022-09-23T01:39:23.295Z,3.23
2022-09-23T01:41:58.201Z,3.25
2022-09-23T01:44:33.272Z,3.20
2022-09-23T01:47:11.035Z,3.15
2022-09-23T01:49:46.293Z,3.14
2022-09-23T01:52:19.272Z,3.03
2022-09-23T01:54:54.131Z,2.89
2022-09-23T01:57:27.357Z,2.89
2022-09-23T02:00:00.211Z,2.87
2022-09-23T02:02:49.318Z,2.79
2022-09-23T02:05:23.401Z,2.94
2022-09-23T02:07:59.472Z,2.96
2022-09-23T02:10:35.983Z,2.91
2022-09-23T02:13:08.834Z,2.90
2022-09-23T02:15:42.967Z,2.86
2022-09-23T02:18:16.166Z,2.89
2022-09-23T02:20:45.009Z,2.92
2022-09-23T02:23:14.535Z,2.77
2022-09-23T02:25:53.101Z,2.66
2022-09-23T02:28:32.615Z,2.73
2022-09-23T02:31:08.646Z,2.70
2022-09-23T02:33:41.992Z,2.83
2022-09-23T02:36:13.608Z,2.77
2022-09-23T02:38:46.541Z,2.96
2022-09-23T02:41:20.461Z,2.92
2022-09-23T02:43:54.852Z,3.03
2022-09-23T02:46:23.925Z,3.02
2022-09-23T02:48:56.760Z,3.03
2022-09-23T02:51:25.741Z,3.04
2022-09-23T02:53:56.310Z,3.15
2022-09-23T02:56:24.075Z,3.15
2022-09-23T02:58:54.532Z,3.38
2022-09-23T03:01:39.229Z,3.36
2022-09-23T03:04:18.286Z,3.18
2022-09-23T03:06:58.106Z,3.09
2022-09-23T03:09:32.110Z,2.98
2022-09-23T03:12:11.098Z,2.84
2022-09-23T03:14:49.143Z,2.87
2022-09-23T03:17:25.163Z,3.01
2022-09-23T03:19:59.813Z,2.93
2022-09-23T03:22:32.194Z,2.90
2022-09-23T03:25:04.625Z,2.93
2022-09-23T03:27:35.440Z,3.14
2022-09-23T03:30:05.129Z,3.20
2022-09-23T03:32:35.647Z,3.03
2022-09-23T03:35:06.552Z,3.13
2022-09-23T03:37:39.991Z,3.09
2022-09-23T03:40:14.513Z,2.99
2022-09-23T03:42:43.281Z,2.86
2022-09-23T03:45:17.132Z,2.86
2022-09-23T03:47:48.916Z,2.87
2022-09-23T03:50:18.334Z,2.87
2022-09-23T03:52:46.393Z,2.83
2022-09-23T03:55:16.319Z,2.84
2022-09-23T03:57:44.652Z,2.72
2022-09-23T04:00:14.417Z,2.74
2022-09-23T04:02:42.543Z,2.77
2022-09-23T04:05:12.057Z,2.82
2022-09-23T04:07:41.334Z,2.87
2022-09-23T04:10:10.267Z,3.01
2022-09-23T04:12:38.820Z,3.01
2022-09-23T04:15:07.900Z,2.94
2022-09-23T04:17:35.820Z,2.85
2022-09-23T04:20:03.679Z,2.88
2022-09-23T04:22:31.621Z,2.84
2022-09-23T04:25:00.951Z,2.77
2022-09-23T04:27:28.799Z,2.81
2022-09-23T04:29:56.581Z,2.76
2022-09-23T04:32:24.461Z,2.82
2022-09-23T04:34:52.227Z,2.92
2022-09-23T04:37:19.941Z,2.93
2022-09-23T04:39:47.695Z,2.92
2022-09-23T04:42:16.839Z,2.98
2022-09-23T04:44:44.570Z,2.98
2022-09-23T04:47:12.314Z,2.98
2022-09-23T04:49:40.039Z,3.01
2022-09-23T04:52:07.873Z,2.97
2022-09-23T04:54:35.615Z,2.91
2022-09-23T04:57:03.436Z,2.95
2022-09-23T04:59:32.533Z,2.89
2022-09-23T05:02:00.401Z,2.88
2022-09-23T05:04:28.491Z,2.72
2022-09-23T05:06:59.491Z,2.65
2022-09-23T05:09:31.732Z,2.70
2022-09-23T05:11:59.580Z,2.73
2022-09-23T05:14:27.380Z,2.73
2022-09-23T05:16:56.564Z,2.75
2022-09-23T05:19:24.345Z,2.71
2022-09-23T05:21:52.135Z,2.71
2022-09-23T05:24:19.848Z,2.75
2022-09-23T05:26:48.166Z,2.82
2022-09-23T05:29:16.013Z,2.76
2022-09-23T05:31:43.834Z,2.67
2022-09-23T05:34:12.977Z,2.77
2022-09-23T05:36:40.724Z,2.78
2022-09-23T05:39:08.927Z,2.69
2022-09-23T05:41:37.746Z,2.70
2022-09-23T05:44:06.032Z,2.69
2022-09-23T05:46:34.283Z,2.71
2022-09-23T05:49:08.186Z,2.78
2022-09-23T05:51:37.493Z,2.84
2022-09-23T05:54:06.285Z,4.38
2022-09-23T05:56:35.309Z,5.22
2022-09-23T05:59:05.171Z,6.00
2022-09-23T06:01:35.242Z,5.96
2022-09-23T06:04:04.937Z,5.95
2022-09-23T06:06:34.465Z,6.17
2022-09-23T06:09:04.468Z,6.37
2022-09-23T06:11:33.448Z,6.39
2022-09-23T06:14:02.344Z,6.68
2022-09-23T06:16:32.630Z,6.72
2022-09-23T06:19:05.853Z,7.15
2022-09-23T06:21:35.664Z,7.36
2022-09-23T06:24:06.377Z,7.62
2022-09-23T06:26:35.231Z,7.79
2022-09-23T06:29:04.219Z,7.97
2022-09-23T06:31:32.916Z,7.57
2022-09-23T06:34:12.431Z,7.56
2022-09-23T06:36:44.351Z,7.50
2022-09-23T06:39:15.658Z,7.82
2022-09-23T06:41:44.054Z,8.45
2022-09-23T06:44:14.731Z,9.11
2022-09-23T06:46:42.652Z,9.57
2022-09-23T06:49:13.330Z,9.37
2022-09-23T06:51:41.395Z,8.79
2022-09-23T06:54:09.462Z,8.36
2022-09-23T06:56:39.697Z,8.06
2022-09-23T06:59:10.346Z,7.97
2022-09-23T07:01:38.364Z,7.90
2022-09-23T07:04:07.356Z,7.98
2022-09-23T07:06:35.480Z,8.07
2022-09-23T07:09:03.363Z,8.15
2022-09-23T07:11:31.204Z,8.23
2022-09-23T07:14:00.280Z,8.25
2022-09-23T07:16:28.058Z,8.29
2022-09-23T07:18:56.203Z,8.49
2022-09-23T07:21:24.156Z,8.58
2022-09-23T07:23:52.128Z,8.66
2022-09-23T07:26:21.128Z,8.78
2022-09-23T07:28:48.899Z,8.99
2022-09-23T07:31:30.369Z,9.11
2022-09-23T07:34:02.023Z,9.22
2022-09-23T07:36:32.836Z,9.40
2022-09-23T07:39:03.182Z,9.53
2022-09-23T07:41:32.099Z,9.66
2022-09-23T07:44:01.103Z,9.73
2022-09-23T07:46:32.373Z,9.92
2022-09-23T07:49:01.085Z,10.03
2022-09-23T07:51:35.441Z,10.15
2022-09-23T07:54:05.300Z,10.36
2022-09-23T07:56:33.300Z,10.44
2022-09-23T07:59:01.633Z,10.41
2022-09-23T08:01:34.159Z,10.65
2022-09-23T08:04:05.650Z,10.79
2022-09-23T08:06:34.198Z,10.88
2022-09-23T08:09:02.657Z,11.04
2022-09-23T08:11:31.264Z,11.11
2022-09-23T08:13:59.107Z,11.22
2022-09-23T08:16:27.113Z,11.32
2022-09-23T08:18:56.359Z,11.44
2022-09-23T08:21:24.293Z,11.55
2022-09-23T08:23:52.042Z,11.69
2022-09-23T08:26:22.263Z,11.70
2022-09-23T08:28:50.796Z,11.73
2022-09-23T08:31:18.688Z,11.85
2022-09-23T08:33:46.583Z,11.95
2022-09-23T08:36:15.708Z,11.99
2022-09-23T08:38:43.479Z,12.09
2022-09-23T08:41:20.968Z,12.17
2022-09-23T08:43:54.313Z,12.26
2022-09-23T08:46:27.193Z,12.23
2022-09-23T08:48:56.756Z,12.33
2022-09-23T08:51:32.491Z,12.44
2022-09-23T08:54:00.868Z,12.35
2022-09-23T08:56:30.220Z,12.46
2022-09-23T08:59:05.729Z,12.51
2022-09-23T09:01:41.141Z,12.78
2022-09-23T09:04:17.537Z,12.75
2022-09-23T09:06:53.961Z,12.87
2022-09-23T09:09:29.092Z,13.06
2022-09-23T09:12:03.105Z,13.12
2022-09-23T09:14:38.613Z,13.19
2022-09-23T09:17:09.045Z,13.41
2022-09-23T09:19:53.377Z,13.30
2022-09-23T09:22:31.254Z,13.35
2022-09-23T09:25:06.121Z,13.46
2022-09-23T09:27:34.664Z,13.42
2022-09-23T09:30:02.886Z,13.44
2022-09-23T09:32:47.371Z,13.68
2022-09-23T09:35:25.843Z,13.95
2022-09-23T09:37:55.902Z,14.15
2022-09-23T09:40:23.717Z,14.21
2022-09-23T09:42:51.694Z,14.37
2022-09-23T09:45:30.783Z,14.51
2022-09-23T09:48:10.854Z,14.59
2022-09-23T09:50:44.442Z,14.87
2022-09-23T09:53:25.624Z,15.21
2022-09-23T09:56:04.941Z,15.24
2022-09-23T09:58:44.031Z,15.35
2022-09-23T10:01:20.293Z,15.12
2022-09-23T10:03:48.699Z,15.21
2022-09-23T10:06:22.170Z,15.15
2022-09-23T10:09:14.767Z,15.26
2022-09-23T10:11:43.044Z,15.43
2022-09-23T10:14:18.028Z,15.46
2022-09-23T10:16:47.170Z,15.33
2022-09-23T10:19:25.031Z,15.46
2022-09-23T10:21:59.846Z,15.60
2022-09-23T10:24:32.135Z,15.84
2022-09-23T10:27:03.093Z,16.02
2022-09-23T10:29:32.778Z,15.81
2022-09-23T10:32:20.627Z,16.11
2022-09-23T10:34:52.459Z,15.99
2022-09-23T10:37:28.579Z,16.18
2022-09-23T10:40:15.310Z,16.20
2022-09-23T10:43:33.516Z,16.20
2022-09-23T10:46:22.342Z,16.57
2022-09-23T10:49:04.656Z,16.58
2022-09-23T10:51:41.035Z,16.74
2022-09-23T10:54:18.681Z,16.77
2022-09-23T10:56:52.608Z,17.10
2022-09-23T10:59:47.566Z,17.01
2022-09-23T11:02:34.130Z,17.08
2022-09-23T11:05:25.518Z,16.91
2022-09-23T11:08:03.395Z,17.14
2022-09-23T11:11:09.929Z,17.12
2022-09-23T11:13:58.858Z,17.04
2022-09-23T11:16:41.147Z,16.95
2022-09-23T11:19:40.173Z,17.08
2022-09-23T11:22:22.960Z,17.12
2022-09-23T11:25:23.929Z,16.85
2022-09-23T11:28:10.478Z,17.03
2022-09-23T11:30:50.419Z,17.52
2022-09-23T11:33:32.485Z,17.62
2022-09-23T11:36:06.744Z,17.97
2022-09-23T11:38:40.810Z,18.06
2022-09-23T11:41:18.591Z,17.82
2022-09-23T11:43:51.385Z,17.93
2022-09-23T11:46:31.292Z,18.11
2022-09-23T11:49:07.357Z,18.11
2022-09-23T11:51:41.480Z,17.91
2022-09-23T11:54:20.535Z,17.85
2022-09-23T11:56:54.002Z,17.90
2022-09-23T11:59:39.431Z,17.98
2022-09-23T12:02:22.351Z,18.05
2022-09-23T12:05:01.259Z,17.92
2022-09-23T12:07:40.541Z,17.87
2022-09-23T12:10:09.825Z,18.05
2022-09-23T12:12:47.877Z,17.69
2022-09-23T12:15:27.425Z,17.87
2022-09-23T12:18:23.509Z,17.83
2022-09-23T12:21:18.303Z,18.09
2022-09-23T12:24:19.116Z,18.64
2022-09-23T12:26:51.220Z,18.96
2022-09-23T12:29:19.307Z,18.97
2022-09-23T12:31:49.716Z,19.01
2022-09-23T12:34:25.938Z,18.55
2022-09-23T12:36:53.862Z,18.76
2022-09-23T12:39:30.690Z,18.91
2022-09-23T12:42:01.582Z,19.05
2022-09-23T12:44:39.368Z,18.92
2022-09-23T12:47:32.299Z,18.86
2022-09-23T12:50:02.009Z,19.30
2022-09-23T12:52:31.868Z,19.69
2022-09-23T12:55:34.476Z,20.11
2022-09-23T12:58:02.263Z,19.98
2022-09-23T13:00:34.281Z,19.91
2022-09-23T13:03:20.256Z,19.61
2022-09-23T13:06:10.258Z,19.71
2022-09-23T13:08:40.409Z,19.71
2022-09-23T13:11:19.481Z,19.36
2022-09-23T13:13:50.948Z,19.32
2022-09-23T13:16:25.320Z,19.41
2022-09-23T13:18:54.582Z,19.43
2022-09-23T13:21:55.520Z,19.12
2022-09-23T13:24:40.486Z,19.49
2022-09-23T13:27:16.734Z,19.78
2022-09-23T13:29:48.155Z,19.75
2022-09-23T13:32:18.256Z,19.91
2022-09-23T13:34:55.921Z,20.08
2022-09-23T13:37:25.784Z,19.97
2022-09-23T13:40:08.525Z,20.00
2022-09-23T13:42:41.931Z,19.29
2022-09-23T13:45:16.444Z,19.25
2022-09-23T13:47:46.030Z,19.33
2022-09-23T13:50:19.221Z,19.54
2022-09-23T13:52:52.004Z,19.73
2022-09-23T13:55:33.262Z,19.95
2022-09-23T13:58:04.279Z,20.06
2022-09-23T14:00:37.731Z,19.91
2022-09-23T14:03:31.158Z,19.72
2022-09-23T14:06:03.172Z,19.73
2022-09-23T14:08:32.483Z,19.92
2022-09-23T14:11:04.082Z,19.93
2022-09-23T14:13:38.537Z,19.79
2022-09-23T14:16:06.675Z,19.85
2022-09-23T14:18:38.134Z,19.77
2022-09-23T14:21:06.514Z,19.49
2022-09-23T14:23:34.340Z,19.61
2022-09-23T14:26:03.611Z,19.34
2022-09-23T14:28:31.532Z,19.35
2022-09-23T14:31:00.677Z,19.52
2022-09-23T14:33:32.113Z,19.49
2022-09-23T14:36:06.583Z,19.36
2022-09-23T14:38:51.855Z,19.66
2022-09-23T14:41:26.566Z,19.59
2022-09-23T14:43:58.204Z,19.58
2022-09-23T14:46:28.203Z,19.34
2022-09-23T14:48:59.758Z,19.28
2022-09-23T14:51:38.379Z,19.42
2022-09-23T14:54:42.812Z,19.41
2022-09-23T14:57:27.324Z,19.75
2022-09-23T15:00:04.760Z,20.04
2022-09-23T15:02:35.606Z,19.62
2022-09-23T15:05:19.794Z,19.52
2022-09-23T15:07:53.121Z,19.49
2022-09-23T15:10:24.629Z,19.39
2022-09-23T15:12:56.165Z,19.59
2022-09-23T15:15:29.292Z,19.66
2022-09-23T15:18:03.690Z,19.56
2022-09-23T15:20:31.902Z,19.40
2022-09-23T15:22:59.669Z,19.07
2022-09-23T15:25:32.074Z,19.19
2022-09-23T15:28:04.232Z,19.11
2022-09-23T15:30:32.853Z,18.94
2022-09-23T15:33:00.990Z,18.86
2022-09-23T15:35:31.993Z,18.83
2022-09-23T15:38:02.159Z,18.96
2022-09-23T15:40:32.636Z,19.22
2022-09-23T15:43:08.410Z,19.39
2022-09-23T15:45:40.258Z,19.35
2022-09-23T15:48:12.623Z,19.21
2022-09-23T15:50:42.345Z,19.45
2022-09-23T15:53:15.480Z,19.42
2022-09-23T15:55:43.492Z,19.36
2022-09-23T15:58:12.896Z,19.47
2022-09-23T16:00:40.780Z,19.23
2022-09-23T16:03:08.714Z,19.00
2022-09-23T16:05:38.221Z,18.63
2022-09-23T16:08:09.240Z,18.36
2022-09-23T16:10:38.296Z,17.93
2022-09-23T16:13:08.998Z,17.75
2022-09-23T16:15:39.147Z,17.60
2022-09-23T16:18:07.781Z,17.43
2022-09-23T16:20:37.722Z,17.18
2022-09-23T16:23:09.807Z,17.08
2022-09-23T16:25:41.100Z,17.04
2022-09-23T16:28:08.881Z,17.03
2022-09-23T16:30:38.035Z,17.11
2022-09-23T16:33:05.781Z,17.13
2022-09-23T16:35:34.622Z,17.19
2022-09-23T16:38:02.499Z,17.13
2022-09-23T16:40:31.993Z,16.95
2022-09-23T16:43:02.223Z,16.68
2022-09-23T16:45:31.153Z,16.37
2022-09-23T16:48:00.542Z,16.12
2022-09-23T16:50:29.316Z,15.87
2022-09-23T16:52:57.155Z,15.52
2022-09-23T16:55:27.346Z,15.31
2022-09-23T16:57:55.464Z,15.18
2022-09-23T17:00:41.446Z,15.02
2022-09-23T17:03:30.725Z,14.78
2022-09-23T17:05:59.088Z,14.07
2022-09-23T17:08:26.958Z,14.08
2022-09-23T17:10:59.452Z,14.06
2022-09-23T17:13:28.108Z,13.98
2022-09-23T17:15:56.377Z,13.98
2022-09-23T17:18:26.155Z,14.07
2022-09-23T17:21:00.825Z,14.09
2022-09-23T17:23:29.630Z,14.15
2022-09-23T17:25:57.554Z,13.96
2022-09-23T17:28:25.871Z,13.76
2022-09-23T17:30:58.700Z,13.57
2022-09-23T17:33:33.098Z,13.50
2022-09-23T17:36:01.594Z,13.53
2022-09-23T17:38:29.828Z,13.53
2022-09-23T17:41:01.123Z,13.39
2022-09-23T17:43:29.364Z,13.36
2022-09-23T17:45:59.162Z,13.38
2022-09-23T17:48:29.787Z,13.31
2022-09-23T17:50:58.480Z,13.23
2022-09-23T17:53:27.001Z,13.10
2022-09-23T17:55:59.369Z,13.07
2022-09-23T17:58:28.926Z,12.97
2022-09-23T18:01:00.434Z,13.03
2022-09-23T18:03:31.783Z,12.97
2022-09-23T18:06:08.327Z,12.93
2022-09-23T18:08:36.246Z,12.90
2022-09-23T18:11:12.555Z,12.85
2022-09-23T18:13:40.402Z,12.79
2022-09-23T18:16:08.420Z,12.47
2022-09-23T18:18:37.705Z,12.32
2022-09-23T18:21:06.786Z,12.33
2022-09-23T18:23:34.806Z,12.32
2022-09-23T18:26:02.683Z,12.25
2022-09-23T18:28:34.647Z,12.23
2022-09-23T18:31:03.141Z,12.25
2022-09-23T18:33:31.003Z,12.21
2022-09-23T18:36:02.261Z,12.13
2022-09-23T18:38:30.353Z,12.04
2022-09-23T18:40:59.321Z,12.00
2022-09-23T18:43:37.412Z,11.91
2022-09-23T18:46:09.428Z,11.92
2022-09-23T18:48:55.157Z,11.82
2022-09-23T18:51:25.857Z,11.84
2022-09-23T18:53:57.576Z,11.74
2022-09-23T18:56:27.703Z,11.68
2022-09-23T18:58:56.968Z,11.65
2022-09-23T19:01:25.424Z,11.62
2022-09-23T19:03:56.357Z,11.52
2022-09-23T19:06:26.665Z,11.49
2022-09-23T19:08:56.184Z,11.42
2022-09-23T19:11:25.365Z,11.34
2022-09-23T19:13:55.419Z,11.29
2022-09-23T19:16:24.484Z,11.32
2022-09-23T19:18:52.717Z,11.34
2022-09-23T19:21:22.196Z,11.34
2022-09-23T19:23:53.612Z,11.17
2022-09-23T19:26:24.758Z,11.06
2022-09-23T19:28:54.497Z,10.99
2022-09-23T19:31:25.049Z,10.98
2022-09-23T19:33:56.699Z,10.98
2022-09-23T19:36:26.722Z,10.99
2022-09-23T19:38:57.685Z,11.01
2022-09-23T19:41:29.157Z,11.04
2022-09-23T19:43:58.618Z,11.03
2022-09-23T19:46:26.865Z,11.04
2022-09-23T19:48:55.096Z,10.98
2022-09-23T19:51:23.671Z,10.94
2022-09-23T19:53:51.528Z,10.78
2022-09-23T19:56:21.238Z,10.78
2022-09-23T19:58:53.375Z,10.73
2022-09-23T20:01:22.445Z,10.73
2022-09-23T20:03:51.014Z,10.74
2022-09-23T20:06:19.467Z,10.66
2022-09-23T20:08:48.090Z,10.76
2022-09-23T20:11:18.232Z,10.71
2022-09-23T20:13:48.614Z,10.63
2022-09-23T20:16:18.121Z,10.57
2022-09-23T20:18:47.325Z,10.53
2022-09-23T20:21:17.027Z,10.45
2022-09-23T20:23:45.290Z,10.32
2022-09-23T20:26:30.919Z,10.43
2022-09-23T20:29:01.349Z,10.47
2022-09-23T20:31:29.885Z,10.47
2022-09-23T20:33:59.095Z,10.39
2022-09-23T20:36:27.878Z,10.35
2022-09-23T20:38:56.336Z,10.28
2022-09-23T20:41:24.538Z,10.26
2022-09-23T20:43:54.250Z,10.32
2022-09-23T20:46:24.030Z,10.29
2022-09-23T20:48:51.964Z,10.22
2022-09-23T20:51:19.813Z,10.29
2022-09-23T20:53:51.830Z,10.40
2022-09-23T20:56:20.325Z,10.42
2022-09-23T20:58:48.747Z,10.36
2022-09-23T21:01:17.135Z,11.44
2022-09-23T21:03:48.087Z,12.80
2022-09-23T21:06:18.945Z,13.19
2022-09-23T21:08:47.273Z,13.01
2022-09-23T21:11:16.925Z,12.07
2022-09-23T21:13:47.744Z,11.45
2022-09-23T21:16:17.086Z,11.17
2022-09-23T21:18:48.053Z,10.93
2022-09-23T21:21:19.397Z,10.84
2022-09-23T21:23:48.212Z,10.71
2022-09-23T21:26:18.615Z,10.67
2022-09-23T21:28:48.348Z,10.69
2022-09-23T21:31:22.971Z,10.73
2022-09-23T21:33:55.006Z,10.69
2022-09-23T21:36:24.834Z,10.59
2022-09-23T21:38:53.850Z,10.44
2022-09-23T21:41:21.935Z,10.45
2022-09-23T21:43:50.215Z,10.46
2022-09-23T21:46:20.867Z,10.44
2022-09-23T21:48:53.203Z,10.36
2022-09-23T21:51:25.478Z,10.42
2022-09-23T21:53:55.378Z,10.38
2022-09-23T21:56:24.599Z,10.44
2022-09-23T21:58:54.041Z,10.54
2022-09-23T22:01:24.301Z,10.45
2022-09-23T22:03:53.920Z,10.38
2022-09-23T22:06:26.885Z,10.41
2022-09-23T22:08:59.208Z,10.40
2022-09-23T22:11:47.038Z,10.57
2022-09-23T22:14:16.446Z,10.62
2022-09-23T22:16:45.098Z,10.64
2022-09-23T22:19:14.792Z,10.69
2022-09-23T22:21:45.800Z,10.72
2022-09-23T22:24:14.589Z,10.78
2022-09-23T22:26:44.471Z,10.82
2022-09-23T22:29:31.609Z,10.85
2022-09-23T22:32:17.224Z,10.88
2022-09-23T22:34:50.067Z,10.93
2022-09-23T22:37:21.735Z,10.86
2022-09-23T22:39:49.756Z,10.84
2022-09-23T22:42:18.171Z,10.83
2022-09-23T22:44:46.038Z,10.85
2022-09-23T22:47:13.911Z,10.85
2022-09-23T22:49:42.831Z,10.86
2022-09-23T22:52:11.411Z,10.82
2022-09-23T22:54:40.708Z,10.91
2022-09-23T22:57:09.454Z,10.93
2022-09-23T22:59:38.278Z,10.93
2022-09-23T23:02:08.089Z,10.82
2022-09-23T23:04:37.150Z,10.89
2022-09-23T23:07:06.941Z,10.93
2022-09-23T23:09:35.304Z,10.91
2022-09-23T23:12:05.110Z,10.93
2022-09-23T23:14:32.932Z,10.88
2022-09-23T23:17:00.705Z,10.95
2022-09-23T23:19:28.617Z,10.94
2022-09-23T23:21:56.361Z,11.05
2022-09-23T23:24:24.890Z,10.97
2022-09-23T23:26:53.375Z,10.93
2022-09-23T23:29:23.802Z,10.85
2022-09-23T23:31:51.762Z,10.91
2022-09-23T23:34:21.524Z,10.93
2022-09-23T23:36:53.511Z,10.94
2022-09-23T23:39:23.449Z,11.00
2022-09-23T23:41:53.441Z,10.94
2022-09-23T23:44:23.260Z,10.93
2022-09-23T23:46:51.208Z,10.87
2022-09-23T23:49:19.448Z,10.83
2022-09-23T23:51:47.892Z,10.90
2022-09-23T23:54:16.178Z,10.90
2022-09-23T23:56:44.095Z,10.86
2022-09-23T23:59:12.438Z,10.83
